sensor_id;sensor_type;location;lat;lon;timestamp;pressure;altitude;pressure_sealevel;temperature;humidity
46007;BME280;31738;50.188;8.524;2023-11-21T00:00:15;98038.44;;;10.61;93.46
46007;BME280;31738;50.188;8.524;2023-11-21T00:02:41;98037.38;;;10.62;93.60
46007;BME280;31738;50.188;8.524;2023-11-21T00:05:08;98035.78;;;10.61;93.84
46007;BME280;31738;50.188;8.524;2023-11-21T00:07:35;98036.88;;;10.60;93.67
46007;BME280;31738;50.188;8.524;2023-11-21T00:10:01;98033.38;;;10.60;93.56
46007;BME280;31738;50.188;8.524;2023-11-21T00:12:27;98035.28;;;10.59;93.69
46007;BME280;31738;50.188;8.524;2023-11-21T00:14:54;98032.31;;;10.61;93.74
46007;BME280;31738;50.188;8.524;2023-11-21T00:17:20;98029.34;;;10.62;94.04
46007;BME280;31738;50.188;8.524;2023-11-21T00:19:45;98027.72;;;10.61;93.53
46007;BME280;31738;50.188;8.524;2023-11-21T00:22:11;98033.09;;;10.61;93.37
46007;BME280;31738;50.188;8.524;2023-11-21T00:24:36;98033.09;;;10.61;93.68
46007;BME280;31738;50.188;8.524;2023-11-21T00:27:02;98030.13;;;10.63;93.65
46007;BME280;31738;50.188;8.524;2023-11-21T00:29:27;98030.41;;;10.61;93.39
46007;BME280;31738;50.188;8.524;2023-11-21T00:31:54;98041.66;;;10.63;93.83
46007;BME280;31738;50.188;8.524;2023-11-21T00:34:19;98045.44;;;10.62;93.52
46007;BME280;31738;50.188;8.524;2023-11-21T00:36:45;98040.56;;;10.64;93.93
46007;BME280;31738;50.188;8.524;2023-11-21T00:39:11;98047.53;;;10.65;93.76
46007;BME280;31738;50.188;8.524;2023-11-21T00:41:37;98045.91;;;10.64;93.67
46007;BME280;31738;50.188;8.524;2023-11-21T00:44:03;98042.47;;;10.64;93.75
46007;BME280;31738;50.188;8.524;2023-11-21T00:46:28;98044.03;;;10.65;93.81
46007;BME280;31738;50.188;8.524;2023-11-21T00:48:55;98037.88;;;10.64;93.44
46007;BME280;31738;50.188;8.524;2023-11-21T00:51:21;98039.47;;;10.65;93.62
46007;BME280;31738;50.188;8.524;2023-11-21T00:53:47;98037.88;;;10.64;93.75
46007;BME280;31738;50.188;8.524;2023-11-21T00:56:13;98045.91;;;10.64;93.84
46007;BME280;31738;50.188;8.524;2023-11-21T00:58:39;98041.66;;;10.63;93.76
46007;BME280;31738;50.188;8.524;2023-11-21T01:01:09;98034.69;;;10.62;93.88
46007;BME280;31738;50.188;8.524;2023-11-21T01:03:34;98040.06;;;10.62;93.78
46007;BME280;31738;50.188;8.524;2023-11-21T01:06:00;98047.00;;;10.63;93.87
46007;BME280;31738;50.188;8.524;2023-11-21T01:08:25;98044.63;;;10.62;93.91
46007;BME280;31738;50.188;8.524;2023-11-21T01:10:51;98052.38;;;10.63;94.17
46007;BME280;31738;50.188;8.524;2023-11-21T01:13:16;98053.19;;;10.64;93.79
46007;BME280;31738;50.188;8.524;2023-11-21T01:15:42;98047.00;;;10.63;93.62
46007;BME280;31738;50.188;8.524;2023-11-21T01:18:08;98057.75;;;10.63;93.99
46007;BME280;31738;50.188;8.524;2023-11-21T01:20:34;98058.31;;;10.60;93.76
46007;BME280;31738;50.188;8.524;2023-11-21T01:22:59;98061.81;;;10.61;94.03
46007;BME280;31738;50.188;8.524;2023-11-21T01:25:26;98052.97;;;10.60;93.77
46007;BME280;31738;50.188;8.524;2023-11-21T01:27:52;98056.75;;;10.59;93.73
46007;BME280;31738;50.188;8.524;2023-11-21T01:30:18;98054.06;;;10.59;93.84
46007;BME280;31738;50.188;8.524;2023-11-21T01:32:43;98059.72;;;10.58;93.61
46007;BME280;31738;50.188;8.524;2023-11-21T01:35:09;98058.91;;;10.57;93.84
46007;BME280;31738;50.188;8.524;2023-11-21T01:37:36;98058.91;;;10.57;93.92
46007;BME280;31738;50.188;8.524;2023-11-21T01:40:03;98064.25;;;10.57;93.89
46007;BME280;31738;50.188;8.524;2023-11-21T01:42:33;98061.88;;;10.56;93.83
46007;BME280;31738;50.188;8.524;2023-11-21T01:44:59;98062.69;;;10.56;93.96
46007;BME280;31738;50.188;8.524;2023-11-21T01:47:25;98065.66;;;10.55;93.92
46007;BME280;31738;50.188;8.524;2023-11-21T01:49:51;98070.50;;;10.53;94.02
46007;BME280;31738;50.188;8.524;2023-11-21T01:52:16;98065.41;;;10.51;93.94
46007;BME280;31738;50.188;8.524;2023-11-21T01:54:43;98068.41;;;10.50;94.03
46007;BME280;31738;50.188;8.524;2023-11-21T01:57:09;98064.91;;;10.49;93.89
46007;BME280;31738;50.188;8.524;2023-11-21T01:59:36;98069.16;;;10.50;93.88
46007;BME280;31738;50.188;8.524;2023-11-21T02:02:06;98065.72;;;10.50;93.79
46007;BME280;31738;50.188;8.524;2023-11-21T02:04:33;98072.94;;;10.49;93.88
46007;BME280;31738;50.188;8.524;2023-11-21T02:07:00;98072.94;;;10.49;93.83
46007;BME280;31738;50.188;8.524;2023-11-21T02:09:29;98080.47;;;10.47;93.62
46007;BME280;31738;50.188;8.524;2023-11-21T02:11:58;98082.66;;;10.45;94.00
46007;BME280;31738;50.188;8.524;2023-11-21T02:14:25;98086.41;;;10.44;94.08
46007;BME280;31738;50.188;8.524;2023-11-21T02:16:52;98087.00;;;10.41;93.71
46007;BME280;31738;50.188;8.524;2023-11-21T02:19:19;98080.84;;;10.41;94.03
46007;BME280;31738;50.188;8.524;2023-11-21T02:21:52;98083.31;;;10.37;93.64
46007;BME280;31738;50.188;8.524;2023-11-21T02:24:21;98076.63;;;10.34;93.77
46007;BME280;31738;50.188;8.524;2023-11-21T02:26:50;98076.41;;;10.31;93.91
46007;BME280;31738;50.188;8.524;2023-11-21T02:29:17;98075.59;;;10.30;93.69
46007;BME280;31738;50.188;8.524;2023-11-21T02:31:46;98070.53;;;10.29;93.59
46007;BME280;31738;50.188;8.524;2023-11-21T02:34:16;98071.91;;;10.26;93.84
46007;BME280;31738;50.188;8.524;2023-11-21T02:36:45;98070.59;;;10.24;93.87
46007;BME280;31738;50.188;8.524;2023-11-21T02:39:11;98081.09;;;10.20;93.76
46007;BME280;31738;50.188;8.524;2023-11-21T02:41:40;98072.81;;;10.17;93.83
46007;BME280;31738;50.188;8.524;2023-11-21T02:44:06;98081.44;;;10.14;93.75
46007;BME280;31738;50.188;8.524;2023-11-21T02:46:35;98084.41;;;10.12;93.78
46007;BME280;31738;50.188;8.524;2023-11-21T02:49:05;98082.00;;;10.11;93.65
46007;BME280;31738;50.188;8.524;2023-11-21T02:51:36;98077.22;;;10.08;93.67
46007;BME280;31738;50.188;8.524;2023-11-21T02:54:01;98074.81;;;10.06;93.77
46007;BME280;31738;50.188;8.524;2023-11-21T02:56:30;98082.31;;;10.04;93.58
46007;BME280;31738;50.188;8.524;2023-11-21T02:58:56;98076.19;;;10.04;93.65
46007;BME280;31738;50.188;8.524;2023-11-21T03:01:21;98082.88;;;10.01;93.83
46007;BME280;31738;50.188;8.524;2023-11-21T03:03:48;98079.69;;;9.99;93.77
46007;BME280;31738;50.188;8.524;2023-11-21T03:06:17;98078.69;;;9.95;94.00
46007;BME280;31738;50.188;8.524;2023-11-21T03:08:43;98084.59;;;9.92;93.56
46007;BME280;31738;50.188;8.524;2023-11-21T03:11:08;98089.72;;;9.89;93.89
46007;BME280;31738;50.188;8.524;2023-11-21T03:13:34;98087.63;;;9.86;94.24
46007;BME280;31738;50.188;8.524;2023-11-21T03:15:59;98092.47;;;9.84;93.76
46007;BME280;31738;50.188;8.524;2023-11-21T03:18:25;98092.75;;;9.82;94.02
46007;BME280;31738;50.188;8.524;2023-11-21T03:20:52;98093.81;;;9.81;93.75
46007;BME280;31738;50.188;8.524;2023-11-21T03:23:17;98101.06;;;9.81;94.08
46007;BME280;31738;50.188;8.524;2023-11-21T03:25:43;98094.63;;;9.82;93.96
46007;BME280;31738;50.188;8.524;2023-11-21T03:28:08;98106.94;;;9.83;94.15
46007;BME280;31738;50.188;8.524;2023-11-21T03:30:35;98104.78;;;9.85;93.99
46007;BME280;31738;50.188;8.524;2023-11-21T03:33:00;98101.28;;;9.84;93.73
46007;BME280;31738;50.188;8.524;2023-11-21T03:35:26;98114.41;;;9.86;93.75
46007;BME280;31738;50.188;8.524;2023-11-21T03:37:51;98110.66;;;9.87;93.79
46007;BME280;31738;50.188;8.524;2023-11-21T03:40:17;98120.28;;;9.88;93.98
46007;BME280;31738;50.188;8.524;2023-11-21T03:42:42;98120.28;;;9.88;94.07
46007;BME280;31738;50.188;8.524;2023-11-21T03:45:08;98118.91;;;9.90;94.06
46007;BME280;31738;50.188;8.524;2023-11-21T03:47:34;98125.88;;;9.91;93.50
46007;BME280;31738;50.188;8.524;2023-11-21T03:50:00;98123.19;;;9.91;93.88
46007;BME280;31738;50.188;8.524;2023-11-21T03:52:26;98128.28;;;9.93;93.80
46007;BME280;31738;50.188;8.524;2023-11-21T03:54:52;98122.09;;;9.92;94.00
46007;BME280;31738;50.188;8.524;2023-11-21T03:57:17;98122.91;;;9.93;93.77
46007;BME280;31738;50.188;8.524;2023-11-21T03:59:43;98117.56;;;9.93;93.88
46007;BME280;31738;50.188;8.524;2023-11-21T04:02:09;98125.31;;;9.94;93.84
46007;BME280;31738;50.188;8.524;2023-11-21T04:04:35;98128.47;;;9.96;93.85
46007;BME280;31738;50.188;8.524;2023-11-21T04:07:01;98126.59;;;9.97;93.92
46007;BME280;31738;50.188;8.524;2023-11-21T04:09:27;98128.19;;;9.98;93.79
46007;BME280;31738;50.188;8.524;2023-11-21T04:11:53;98136.22;;;9.98;93.70
46007;BME280;31738;50.188;8.524;2023-11-21T04:14:19;98143.22;;;9.99;94.09
46007;BME280;31738;50.188;8.524;2023-11-21T04:16:44;98137.84;;;9.99;93.98
46007;BME280;31738;50.188;8.524;2023-11-21T04:19:10;98142.41;;;9.98;93.54
46007;BME280;31738;50.188;8.524;2023-11-21T04:21:38;98147.75;;;9.98;94.17
46007;BME280;31738;50.188;8.524;2023-11-21T04:24:04;98146.94;;;9.98;93.70
46007;BME280;31738;50.188;8.524;2023-11-21T04:26:29;98151.81;;;9.96;94.16
46007;BME280;31738;50.188;8.524;2023-11-21T04:28:55;98149.69;;;9.93;94.15
46007;BME280;31738;50.188;8.524;2023-11-21T04:31:20;98152.88;;;9.95;94.08
46007;BME280;31738;50.188;8.524;2023-11-21T04:33:46;98160.91;;;9.95;94.34
46007;BME280;31738;50.188;8.524;2023-11-21T04:36:11;98162.53;;;9.96;93.93
46007;BME280;31738;50.188;8.524;2023-11-21T04:38:37;98161.44;;;9.97;94.06
46007;BME280;31738;50.188;8.524;2023-11-21T04:41:02;98163.03;;;9.98;94.08
46007;BME280;31738;50.188;8.524;2023-11-21T04:43:28;98159.28;;;9.99;94.08
46007;BME280;31738;50.188;8.524;2023-11-21T04:45:55;98165.69;;;9.98;94.00
46007;BME280;31738;50.188;8.524;2023-11-21T04:48:20;98170.00;;;9.99;93.96
46007;BME280;31738;50.188;8.524;2023-11-21T04:50:45;98172.97;;;9.97;93.65
46007;BME280;31738;50.188;8.524;2023-11-21T04:53:11;98175.91;;;9.96;94.26
46007;BME280;31738;50.188;8.524;2023-11-21T04:55:40;98186.63;;;9.96;93.93
46007;BME280;31738;50.188;8.524;2023-11-21T04:58:06;98185.03;;;9.95;94.46
46007;BME280;31738;50.188;8.524;2023-11-21T05:00:31;98182.63;;;9.93;94.24
46007;BME280;31738;50.188;8.524;2023-11-21T05:02:57;98190.38;;;9.95;93.79
46007;BME280;31738;50.188;8.524;2023-11-21T05:05:22;98186.63;;;9.96;93.98
46007;BME280;31738;50.188;8.524;2023-11-21T05:07:48;98195.16;;;9.98;94.33
46007;BME280;31738;50.188;8.524;2023-11-21T05:10:14;98192.50;;;9.98;93.98
46007;BME280;31738;50.188;8.524;2023-11-21T05:12:41;98189.03;;;9.97;94.33
46007;BME280;31738;50.188;8.524;2023-11-21T05:15:08;98199.47;;;9.99;94.39
46007;BME280;31738;50.188;8.524;2023-11-21T05:17:35;98196.78;;;9.99;94.28
46007;BME280;31738;50.188;8.524;2023-11-21T05:20:02;98208.28;;;9.99;94.30
46007;BME280;31738;50.188;8.524;2023-11-21T05:22:29;98204.53;;;10.00;94.03
46007;BME280;31738;50.188;8.524;2023-11-21T05:24:55;98212.28;;;10.02;94.39
46007;BME280;31738;50.188;8.524;2023-11-21T05:27:20;98201.88;;;10.00;94.32
46007;BME280;31738;50.188;8.524;2023-11-21T05:29:46;98206.41;;;10.00;94.19
46007;BME280;31738;50.188;8.524;2023-11-21T05:32:11;98209.09;;;10.00;94.06
46007;BME280;31738;50.188;8.524;2023-11-21T05:34:37;98213.38;;;10.01;94.55
46007;BME280;31738;50.188;8.524;2023-11-21T05:37:02;98219.81;;;10.00;94.42
46007;BME280;31738;50.188;8.524;2023-11-21T05:39:28;98214.44;;;10.00;94.68
46007;BME280;31738;50.188;8.524;2023-11-21T05:41:53;98230.00;;;9.98;94.19
46007;BME280;31738;50.188;8.524;2023-11-21T05:44:19;98229.22;;;9.97;94.06
46007;BME280;31738;50.188;8.524;2023-11-21T05:46:44;98223.03;;;9.97;94.26
46007;BME280;31738;50.188;8.524;2023-11-21T05:49:10;98231.09;;;9.97;94.59
46007;BME280;31738;50.188;8.524;2023-11-21T05:51:37;98232.19;;;9.96;94.43
46007;BME280;31738;50.188;8.524;2023-11-21T05:54:03;98227.88;;;9.95;94.24
46007;BME280;31738;50.188;8.524;2023-11-21T05:56:29;98237.00;;;9.94;94.20
46007;BME280;31738;50.188;8.524;2023-11-21T05:58:54;98242.38;;;9.94;94.49
46007;BME280;31738;50.188;8.524;2023-11-21T06:01:19;98242.66;;;9.92;94.40
46007;BME280;31738;50.188;8.524;2023-11-21T06:03:45;98245.59;;;9.91;94.11
46007;BME280;31738;50.188;8.524;2023-11-21T06:06:11;98250.44;;;9.89;94.27
46007;BME280;31738;50.188;8.524;2023-11-21T06:08:36;98248.31;;;9.86;94.82
46007;BME280;31738;50.188;8.524;2023-11-21T06:11:01;98250.50;;;9.84;94.67
46007;BME280;31738;50.188;8.524;2023-11-21T06:13:27;98254.75;;;9.85;94.67
46007;BME280;31738;50.188;8.524;2023-11-21T06:15:53;98260.13;;;9.85;94.36
46007;BME280;31738;50.188;8.524;2023-11-21T06:18:18;98272.41;;;9.86;94.37
46007;BME280;31738;50.188;8.524;2023-11-21T06:20:47;98271.38;;;9.87;94.23
46007;BME280;31738;50.188;8.524;2023-11-21T06:23:12;98276.19;;;9.85;94.28
46007;BME280;31738;50.188;8.524;2023-11-21T06:25:39;98279.69;;;9.85;94.26
46007;BME280;31738;50.188;8.524;2023-11-21T06:28:06;98282.34;;;9.85;94.29
46007;BME280;31738;50.188;8.524;2023-11-21T06:30:31;98287.44;;;9.87;94.15
46007;BME280;31738;50.188;8.524;2023-11-21T06:32:57;98288.50;;;9.86;94.17
46007;BME280;31738;50.188;8.524;2023-11-21T06:35:22;98295.47;;;9.87;94.27
46007;BME280;31738;50.188;8.524;2023-11-21T06:37:48;98290.13;;;9.87;94.46
46007;BME280;31738;50.188;8.524;2023-11-21T06:40:14;98289.31;;;9.86;94.48
46007;BME280;31738;50.188;8.524;2023-11-21T06:42:46;98294.94;;;9.85;94.39
46007;BME280;31738;50.188;8.524;2023-11-21T06:45:12;98296.53;;;9.86;94.30
46007;BME280;31738;50.188;8.524;2023-11-21T06:47:38;98300.81;;;9.87;94.35
46007;BME280;31738;50.188;8.524;2023-11-21T06:50:05;98301.88;;;9.86;94.26
46007;BME280;31738;50.188;8.524;2023-11-21T06:52:32;98315.28;;;9.86;94.50
46007;BME280;31738;50.188;8.524;2023-11-21T06:54:57;98307.25;;;9.86;94.26
46007;BME280;31738;50.188;8.524;2023-11-21T06:57:23;98312.59;;;9.86;94.25
46007;BME280;31738;50.188;8.524;2023-11-21T06:59:49;98318.78;;;9.86;94.33
46007;BME280;31738;50.188;8.524;2023-11-21T07:02:16;98329.19;;;9.88;94.43
46007;BME280;31738;50.188;8.524;2023-11-21T07:04:45;98334.03;;;9.86;94.22
46007;BME280;31738;50.188;8.524;2023-11-21T07:07:11;98332.72;;;9.83;94.04
46007;BME280;31738;50.188;8.524;2023-11-21T07:09:37;98333.53;;;9.84;94.43
46007;BME280;31738;50.188;8.524;2023-11-21T07:12:02;98338.88;;;9.84;94.34
46007;BME280;31738;50.188;8.524;2023-11-21T07:14:29;98341.56;;;9.84;94.08
46007;BME280;31738;50.188;8.524;2023-11-21T07:16:54;98351.19;;;9.85;94.25
46007;BME280;31738;50.188;8.524;2023-11-21T07:19:20;98346.63;;;9.85;94.00
46007;BME280;31738;50.188;8.524;2023-11-21T07:21:46;98355.19;;;9.87;93.89
46007;BME280;31738;50.188;8.524;2023-11-21T07:24:11;98368.28;;;9.89;94.02
46007;BME280;31738;50.188;8.524;2023-11-21T07:26:37;98365.63;;;9.89;93.96
46007;BME280;31738;50.188;8.524;2023-11-21T07:29:02;98368.28;;;9.89;93.97
46007;BME280;31738;50.188;8.524;2023-11-21T07:31:29;98374.19;;;9.91;93.92
46007;BME280;31738;50.188;8.524;2023-11-21T07:33:55;98374.72;;;9.93;93.88
46007;BME280;31738;50.188;8.524;2023-11-21T07:36:23;98372.53;;;9.95;93.76
46007;BME280;31738;50.188;8.524;2023-11-21T07:38:49;98380.03;;;9.98;93.88
46007;BME280;31738;50.188;8.524;2023-11-21T07:41:15;98380.56;;;10.00;93.63
46007;BME280;31738;50.188;8.524;2023-11-21T07:43:41;98392.09;;;10.00;93.64
46007;BME280;31738;50.188;8.524;2023-11-21T07:46:07;98388.59;;;10.00;93.66
46007;BME280;31738;50.188;8.524;2023-11-21T07:48:33;98385.91;;;10.00;93.74
46007;BME280;31738;50.188;8.524;2023-11-21T07:51:00;98389.13;;;10.02;93.72
46007;BME280;31738;50.188;8.524;2023-11-21T07:53:25;98385.34;;;10.03;93.62
46007;BME280;31738;50.188;8.524;2023-11-21T07:55:54;98383.75;;;10.02;93.81
46007;BME280;31738;50.188;8.524;2023-11-21T07:58:20;98392.63;;;10.02;93.68
46007;BME280;31738;50.188;8.524;2023-11-21T08:00:46;98408.69;;;10.02;93.53
46007;BME280;31738;50.188;8.524;2023-11-21T08:03:13;98404.09;;;10.03;93.49
46007;BME280;31738;50.188;8.524;2023-11-21T08:05:39;98416.94;;;10.06;93.53
46007;BME280;31738;50.188;8.524;2023-11-21T08:08:04;98411.59;;;10.06;93.59
46007;BME280;31738;50.188;8.524;2023-11-21T08:10:30;98419.38;;;10.07;93.09
46007;BME280;31738;50.188;8.524;2023-11-21T08:12:55;98418.03;;;10.10;93.19
46007;BME280;31738;50.188;8.524;2023-11-21T08:15:21;98424.19;;;10.10;93.21
46007;BME280;31738;50.188;8.524;2023-11-21T08:17:47;98423.41;;;10.10;92.97
46007;BME280;31738;50.188;8.524;2023-11-21T08:20:12;98431.16;;;10.11;93.09
46007;BME280;31738;50.188;8.524;2023-11-21T08:22:42;98438.94;;;10.13;93.20
46007;BME280;31738;50.188;8.524;2023-11-21T08:25:08;98437.84;;;10.14;92.99
46007;BME280;31738;50.188;8.524;2023-11-21T08:27:34;98437.84;;;10.14;93.00
46007;BME280;31738;50.188;8.524;2023-11-21T08:30:03;98441.06;;;10.16;92.97
46007;BME280;31738;50.188;8.524;2023-11-21T08:32:29;98438.38;;;10.16;93.08
46007;BME280;31738;50.188;8.524;2023-11-21T08:34:57;98445.59;;;10.15;93.03
46007;BME280;31738;50.188;8.524;2023-11-21T08:37:23;98448.28;;;10.15;93.14
46007;BME280;31738;50.188;8.524;2023-11-21T08:39:49;98447.72;;;10.18;92.90
46007;BME280;31738;50.188;8.524;2023-11-21T08:42:14;98456.31;;;10.20;93.21
46007;BME280;31738;50.188;8.524;2023-11-21T08:44:40;98460.28;;;10.23;92.82
46007;BME280;31738;50.188;8.524;2023-11-21T08:47:06;98456.53;;;10.24;92.86
46007;BME280;31738;50.188;8.524;2023-11-21T08:49:32;98463.50;;;10.25;92.78
46007;BME280;31738;50.188;8.524;2023-11-21T08:51:58;98475.81;;;10.26;92.81
46007;BME280;31738;50.188;8.524;2023-11-21T08:54:25;98478.50;;;10.26;92.41
46007;BME280;31738;50.188;8.524;2023-11-21T08:56:54;98483.31;;;10.29;92.60
46007;BME280;31738;50.188;8.524;2023-11-21T08:59:20;98484.94;;;10.30;92.28
46007;BME280;31738;50.188;8.524;2023-11-21T09:01:47;98479.28;;;10.31;92.45
46007;BME280;31738;50.188;8.524;2023-11-21T09:04:12;98484.38;;;10.33;92.74
46007;BME280;31738;50.188;8.524;2023-11-21T09:06:39;98485.97;;;10.34;92.44
46007;BME280;31738;50.188;8.524;2023-11-21T09:09:05;98490.25;;;10.35;92.35
46007;BME280;31738;50.188;8.524;2023-11-21T09:11:34;98487.00;;;10.38;92.22
46007;BME280;31738;50.188;8.524;2023-11-21T09:14:01;98492.09;;;10.39;92.24
46007;BME280;31738;50.188;8.524;2023-11-21T09:16:26;98499.28;;;10.44;91.75
46007;BME280;31738;50.188;8.524;2023-11-21T09:18:52;98515.38;;;10.44;91.83
46007;BME280;31738;50.188;8.524;2023-11-21T09:21:17;98507.31;;;10.49;91.86
46007;BME280;31738;50.188;8.524;2023-11-21T09:23:48;98520.97;;;10.53;91.57
46007;BME280;31738;50.188;8.524;2023-11-21T09:26:13;98520.69;;;10.54;91.48
46007;BME280;31738;50.188;8.524;2023-11-21T09:28:43;98520.38;;;10.61;91.75
46007;BME280;31738;50.188;8.524;2023-11-21T09:31:11;98514.19;;;10.65;91.44
46007;BME280;31738;50.188;8.524;2023-11-21T09:33:37;98520.56;;;10.74;91.43
46007;BME280;31738;50.188;8.524;2023-11-21T09:36:04;98521.00;;;10.86;91.16
46007;BME280;31738;50.188;8.524;2023-11-21T09:38:30;98522.00;;;10.95;91.09
46007;BME280;31738;50.188;8.524;2023-11-21T09:40:56;98525.16;;;11.02;90.50
46007;BME280;31738;50.188;8.524;2023-11-21T09:43:24;98538.81;;;11.06;90.66
46007;BME280;31738;50.188;8.524;2023-11-21T09:45:59;98540.66;;;11.10;90.40
46007;BME280;31738;50.188;8.524;2023-11-21T09:48:26;98549.81;;;11.09;90.13
46007;BME280;31738;50.188;8.524;2023-11-21T09:50:53;98543.06;;;11.12;90.25
46007;BME280;31738;50.188;8.524;2023-11-21T09:53:20;98550.06;;;11.13;90.20
46007;BME280;31738;50.188;8.524;2023-11-21T09:55:52;98552.94;;;11.16;89.73
46007;BME280;31738;50.188;8.524;2023-11-21T09:58:18;98556.16;;;11.18;89.68
46007;BME280;31738;50.188;8.524;2023-11-21T10:00:46;98555.88;;;11.20;89.58
46007;BME280;31738;50.188;8.524;2023-11-21T10:03:12;98565.25;;;11.22;89.66
46007;BME280;31738;50.188;8.524;2023-11-21T10:05:38;98561.78;;;11.22;89.49
46007;BME280;31738;50.188;8.524;2023-11-21T10:08:08;98570.06;;;11.25;89.64
46007;BME280;31738;50.188;8.524;2023-11-21T10:10:42;98567.91;;;11.27;89.32
46007;BME280;31738;50.188;8.524;2023-11-21T10:13:11;98579.66;;;11.31;89.31
46007;BME280;31738;50.188;8.524;2023-11-21T10:15:37;98584.47;;;11.34;89.06
46007;BME280;31738;50.188;8.524;2023-11-21T10:18:04;98590.09;;;11.38;88.97
46007;BME280;31738;50.188;8.524;2023-11-21T10:20:32;98585.25;;;11.40;89.19
46007;BME280;31738;50.188;8.524;2023-11-21T10:22:59;98587.13;;;11.39;88.90
46007;BME280;31738;50.188;8.524;2023-11-21T10:25:26;98597.88;;;11.39;88.92
46007;BME280;31738;50.188;8.524;2023-11-21T10:27:57;98603.78;;;11.41;88.80
46007;BME280;31738;50.188;8.524;2023-11-21T10:30:27;98602.09;;;11.45;88.92
46007;BME280;31738;50.188;8.524;2023-11-21T10:32:59;98603.72;;;11.46;88.48
46007;BME280;31738;50.188;8.524;2023-11-21T10:35:38;98602.06;;;11.50;88.29
46007;BME280;31738;50.188;8.524;2023-11-21T10:38:04;98602.34;;;11.49;88.43
46007;BME280;31738;50.188;8.524;2023-11-21T10:40:29;98604.75;;;11.50;87.84
46007;BME280;31738;50.188;8.524;2023-11-21T10:43:06;98608.47;;;11.54;87.88
46007;BME280;31738;50.188;8.524;2023-11-21T10:45:31;98607.97;;;11.52;88.05
46007;BME280;31738;50.188;8.524;2023-11-21T10:47:57;98606.59;;;11.55;87.49
46007;BME280;31738;50.188;8.524;2023-11-21T10:50:23;98601.22;;;11.55;87.91
46007;BME280;31738;50.188;8.524;2023-11-21T10:52:48;98598.25;;;11.56;88.11
46007;BME280;31738;50.188;8.524;2023-11-21T10:55:18;98594.19;;;11.64;87.96
46007;BME280;31738;50.188;8.524;2023-11-21T10:58:03;98590.03;;;11.76;87.81
46007;BME280;31738;50.188;8.524;2023-11-21T11:00:31;98597.97;;;11.86;87.38
46007;BME280;31738;50.188;8.524;2023-11-21T11:03:05;98599.47;;;11.97;86.77
46007;BME280;31738;50.188;8.524;2023-11-21T11:05:31;98608.06;;;11.99;86.29
46007;BME280;31738;50.188;8.524;2023-11-21T11:08:09;98606.13;;;12.05;86.06
46007;BME280;31738;50.188;8.524;2023-11-21T11:10:45;98619.28;;;12.06;85.88
46007;BME280;31738;50.188;8.524;2023-11-21T11:13:13;98620.91;;;12.07;85.70
46007;BME280;31738;50.188;8.524;2023-11-21T11:15:40;98620.91;;;12.07;85.62
46007;BME280;31738;50.188;8.524;2023-11-21T11:18:06;98627.63;;;12.05;85.07
46007;BME280;31738;50.188;8.524;2023-11-21T11:20:39;98627.88;;;12.08;85.14
46007;BME280;31738;50.188;8.524;2023-11-21T11:23:38;98626.19;;;12.13;84.60
46007;BME280;31738;50.188;8.524;2023-11-21T11:31:37;98619.41;;;12.20;84.70
46007;BME280;31738;50.188;8.524;2023-11-21T11:34:23;98627.69;;;12.24;84.54
46007;BME280;31738;50.188;8.524;2023-11-21T11:36:58;98627.63;;;12.29;84.17
46007;BME280;31738;50.188;8.524;2023-11-21T11:39:39;98627.78;;;12.37;84.14
46007;BME280;31738;50.188;8.524;2023-11-21T11:42:17;98635.88;;;12.37;83.72
46007;BME280;31738;50.188;8.524;2023-11-21T11:47:20;98641.47;;;12.41;83.08
46007;BME280;31738;50.188;8.524;2023-11-21T11:50:14;98647.66;;;12.41;83.24
46007;BME280;31738;50.188;8.524;2023-11-21T11:52:48;98644.75;;;12.38;83.29
46007;BME280;31738;50.188;8.524;2023-11-21T11:55:20;98652.81;;;12.38;83.04
46007;BME280;31738;50.188;8.524;2023-11-21T11:57:53;98652.81;;;12.38;82.70
46007;BME280;31738;50.188;8.524;2023-11-21T12:00:23;98657.19;;;12.34;82.55
46007;BME280;31738;50.188;8.524;2023-11-21T12:03:01;98656.13;;;12.30;82.35
46007;BME280;31738;50.188;8.524;2023-11-21T12:05:33;98663.13;;;12.31;82.54
46007;BME280;31738;50.188;8.524;2023-11-21T12:08:11;98664.19;;;12.30;82.00
46007;BME280;31738;50.188;8.524;2023-11-21T12:10:38;98673.88;;;12.31;81.83
46007;BME280;31738;50.188;8.524;2023-11-21T12:13:11;98678.44;;;12.30;81.61
46007;BME280;31738;50.188;8.524;2023-11-21T12:15:45;98685.22;;;12.28;81.71
46007;BME280;31738;50.188;8.524;2023-11-21T12:18:11;98688.22;;;12.21;81.17
46007;BME280;31738;50.188;8.524;2023-11-21T12:20:39;98693.09;;;12.19;81.47
46007;BME280;31738;50.188;8.524;2023-11-21T12:23:17;98694.78;;;12.10;81.31
46007;BME280;31738;50.188;8.524;2023-11-21T12:25:43;98693.53;;;12.02;81.86
46007;BME280;31738;50.188;8.524;2023-11-21T12:28:09;98696.16;;;12.07;81.45
46007;BME280;31738;50.188;8.524;2023-11-21T12:30:36;98709.53;;;12.13;81.02
46007;BME280;31738;50.188;8.524;2023-11-21T12:33:06;98704.69;;;12.15;80.99
46007;BME280;31738;50.188;8.524;2023-11-21T12:35:41;98705.22;;;12.17;81.00
46007;BME280;31738;50.188;8.524;2023-11-21T12:38:34;98705.22;;;12.17;81.04
46007;BME280;31738;50.188;8.524;2023-11-21T12:41:00;98710.63;;;12.12;80.60
46007;BME280;31738;50.188;8.524;2023-11-21T12:43:26;98714.91;;;12.13;80.55
46007;BME280;31738;50.188;8.524;2023-11-21T12:46:07;98727.31;;;12.14;80.29
46007;BME280;31738;50.188;8.524;2023-11-21T12:48:32;98731.59;;;12.15;80.81
46007;BME280;31738;50.188;8.524;2023-11-21T12:50:58;98734.75;;;12.22;80.60
46007;BME280;31738;50.188;8.524;2023-11-21T12:53:25;98741.72;;;12.23;80.37
46007;BME280;31738;50.188;8.524;2023-11-21T12:55:51;98740.34;;;12.25;80.41
46007;BME280;31738;50.188;8.524;2023-11-21T12:58:17;98739.00;;;12.28;80.58
46007;BME280;31738;50.188;8.524;2023-11-21T13:00:47;98741.41;;;12.29;80.69
46007;BME280;31738;50.188;8.524;2023-11-21T13:03:15;98741.16;;;12.26;80.28
46007;BME280;31738;50.188;8.524;2023-11-21T13:05:44;98742.00;;;12.21;80.02
46007;BME280;31738;50.188;8.524;2023-11-21T13:08:13;98735.25;;;12.24;80.00
46007;BME280;31738;50.188;8.524;2023-11-21T13:10:40;98750.31;;;12.25;79.69
46007;BME280;31738;50.188;8.524;2023-11-21T13:13:08;98747.69;;;12.20;79.48